createdAt,value
2023-02-18T00:00:13.886Z,88.89
2023-02-18T00:05:36.599Z,88.03
2023-02-18T00:10:41.759Z,87.63
2023-02-18T00:15:44.668Z,86.94
2023-02-18T00:20:47.532Z,84.96
2023-02-18T00:26:07.016Z,84.69
2023-02-18T00:31:13.102Z,83.33
2023-02-18T00:36:18.358Z,82.23
2023-02-18T00:41:23.382Z,79.33
2023-02-18T00:46:28.357Z,78.71
2023-02-18T00:51:31.649Z,77.65
2023-02-18T00:56:35.065Z,76.67
2023-02-18T01:01:37.994Z,75.93
2023-02-18T01:06:41.227Z,75.85
2023-02-18T01:11:44.753Z,75.51
2023-02-18T01:16:48.100Z,73.69
2023-02-18T01:21:51.373Z,73.24
2023-02-18T01:26:54.264Z,72.53
2023-02-18T01:31:57.170Z,71.92
2023-02-18T01:37:00.133Z,72.30
2023-02-18T01:42:02.988Z,71.89
2023-02-18T01:47:05.775Z,71.64
2023-02-18T01:52:13.185Z,72.36
2023-02-18T01:57:23.301Z,72.92
2023-02-18T02:02:28.930Z,71.53
2023-02-18T02:07:32.092Z,71.60
2023-02-18T02:12:58.014Z,71.73
2023-02-18T02:18:04.067Z,70.33
2023-02-18T02:23:25.149Z,70.05
2023-02-18T02:28:58.570Z,70.24
2023-02-18T02:34:27.763Z,69.78
2023-02-18T02:39:33.502Z,68.66
2023-02-18T02:44:48.766Z,68.44
2023-02-18T02:50:06.723Z,68.82
2023-02-18T02:55:11.443Z,68.09
2023-02-18T03:00:17.482Z,68.45
2023-02-18T03:05:35.344Z,67.83
2023-02-18T03:11:04.529Z,67.48
2023-02-18T03:16:26.356Z,67.78
2023-02-18T03:21:43.558Z,67.03
2023-02-18T03:26:52.012Z,67.38
2023-02-18T03:32:00.218Z,66.66
2023-02-18T03:37:03.277Z,66.76
2023-02-18T03:42:09.798Z,66.53
2023-02-18T03:47:13.039Z,66.08
2023-02-18T03:52:15.830Z,65.36
2023-02-18T03:57:18.567Z,64.90
2023-02-18T04:02:21.354Z,64.82
2023-02-18T04:07:24.259Z,64.22
2023-02-18T04:12:27.261Z,65.01
2023-02-18T04:17:30.161Z,64.47
2023-02-18T04:22:32.972Z,65.01
2023-02-18T04:27:35.752Z,64.78
2023-02-18T04:32:38.995Z,65.29
2023-02-18T04:37:42.570Z,65.35
2023-02-18T04:42:45.330Z,65.99
2023-02-18T04:47:48.065Z,65.99
2023-02-18T04:52:50.851Z,65.99
2023-02-18T04:57:53.651Z,66.31
2023-02-18T05:02:56.585Z,66.31
2023-02-18T05:07:59.473Z,66.55
2023-02-18T05:13:02.283Z,66.70
2023-02-18T05:18:05.680Z,66.94
2023-02-18T05:23:08.558Z,67.07
2023-02-18T05:28:11.633Z,66.94
2023-02-18T05:33:14.455Z,67.88
2023-02-18T05:38:17.721Z,68.48
2023-02-18T05:43:20.519Z,68.56
2023-02-18T05:48:23.331Z,68.53
2023-02-18T05:53:28.525Z,68.50
2023-02-18T05:58:31.360Z,68.00
2023-02-18T06:03:34.395Z,67.92
2023-02-18T06:08:37.212Z,68.01
2023-02-18T06:13:41.544Z,67.85
2023-02-18T06:18:44.339Z,68.17
2023-02-18T06:23:47.746Z,68.39
2023-02-18T06:28:53.536Z,68.30
2023-02-18T06:33:56.338Z,68.75
2023-02-18T06:38:59.381Z,68.27
2023-02-18T06:44:03.323Z,68.28
2023-02-18T06:49:06.189Z,68.23
2023-02-18T06:54:09.047Z,67.81
2023-02-18T06:59:11.871Z,67.58
2023-02-18T07:04:14.697Z,67.33
2023-02-18T07:09:17.904Z,67.26
2023-02-18T07:14:21.282Z,67.22
2023-02-18T07:19:24.373Z,66.84
2023-02-18T07:24:27.536Z,66.85
2023-02-18T07:29:31.389Z,66.16
2023-02-18T07:34:34.140Z,66.17
2023-02-18T07:39:40.197Z,65.78
2023-02-18T07:44:43.541Z,65.56
2023-02-18T07:49:47.924Z,65.65
2023-02-18T07:54:50.740Z,65.81
2023-02-18T07:59:53.636Z,65.22
2023-02-18T08:04:58.806Z,64.62
2023-02-18T08:10:01.888Z,63.94
2023-02-18T08:15:05.555Z,63.26
2023-02-18T08:20:10.732Z,63.31
2023-02-18T08:25:27.561Z,63.46
2023-02-18T08:30:32.826Z,62.79
2023-02-18T08:35:35.810Z,62.39
2023-02-18T08:40:38.613Z,62.30
2023-02-18T08:45:42.933Z,62.17
2023-02-18T08:50:45.737Z,62.48
2023-02-18T08:55:48.568Z,62.48
2023-02-18T09:00:51.369Z,61.04
2023-02-18T09:05:54.106Z,59.98
2023-02-18T09:10:59.543Z,58.80
2023-02-18T09:16:06.942Z,59.19
2023-02-18T09:21:13.198Z,59.01
2023-02-18T09:26:18.356Z,59.17
2023-02-18T09:31:25.353Z,59.40
2023-02-18T09:36:29.163Z,59.15
2023-02-18T09:41:39.465Z,59.11
2023-02-18T09:47:17.727Z,58.80
2023-02-18T09:52:25.538Z,59.46
2023-02-18T09:57:37.525Z,58.74
2023-02-18T10:02:54.798Z,58.15
2023-02-18T10:08:05.749Z,58.22
2023-02-18T10:13:23.698Z,58.96
2023-02-18T10:18:33.914Z,58.92
2023-02-18T10:23:40.604Z,58.44
2023-02-18T10:28:45.481Z,58.81
2023-02-18T10:33:51.179Z,58.77
2023-02-18T10:39:24.592Z,59.36
2023-02-18T10:44:58.854Z,58.91
2023-02-18T10:50:10.646Z,59.56
2023-02-18T10:55:19.119Z,58.94
2023-02-18T11:00:25.329Z,58.87
2023-02-18T11:05:32.171Z,58.67
2023-02-18T11:10:38.893Z,58.50
2023-02-18T11:16:01.137Z,58.99
2023-02-18T11:21:37.798Z,59.16
2023-02-18T11:26:58.549Z,59.62
2023-02-18T11:32:03.831Z,59.27
2023-02-18T11:37:19.383Z,58.76
2023-02-18T11:42:29.370Z,59.31
2023-02-18T11:47:37.562Z,59.50
2023-02-18T11:52:46.547Z,58.93
2023-02-18T11:58:01.327Z,59.87
2023-02-18T12:03:15.304Z,58.66
2023-02-18T12:08:24.096Z,58.56
2023-02-18T12:13:29.369Z,58.46
2023-02-18T12:19:08.618Z,57.38
2023-02-18T12:24:29.349Z,58.19
2023-02-18T12:29:58.654Z,59.00
2023-02-18T12:35:04.346Z,58.33
2023-02-18T12:40:10.364Z,58.89
2023-02-18T12:45:25.261Z,59.23
2023-02-18T12:50:38.596Z,58.55
2023-02-18T12:55:55.050Z,59.05
2023-02-18T13:01:35.429Z,58.99
2023-02-18T13:06:58.442Z,59.32
2023-02-18T13:12:09.712Z,58.96
2023-02-18T13:17:17.072Z,59.22
2023-02-18T13:22:24.101Z,59.72
2023-02-18T13:27:50.736Z,60.25
2023-02-18T13:33:12.211Z,60.37
2023-02-18T13:38:52.474Z,60.40
2023-02-18T13:43:55.821Z,60.33
2023-02-18T13:49:02.686Z,59.78
2023-02-18T13:54:12.983Z,59.46
2023-02-18T13:59:18.769Z,58.04
2023-02-18T14:05:11.382Z,58.44
2023-02-18T14:10:20.223Z,59.10
2023-02-18T14:15:23.306Z,59.59
2023-02-18T14:20:38.368Z,59.52
2023-02-18T14:25:42.545Z,59.51
2023-02-18T14:30:47.231Z,59.70
2023-02-18T14:36:13.419Z,60.11
2023-02-18T14:41:22.924Z,60.09
2023-02-18T14:46:37.712Z,60.74
2023-02-18T14:51:43.317Z,60.66
2023-02-18T14:56:54.753Z,61.41
2023-02-18T15:01:57.993Z,61.92
2023-02-18T15:07:05.761Z,61.74
2023-02-18T15:12:09.750Z,62.03
2023-02-18T15:17:17.596Z,62.11
2023-02-18T15:22:23.270Z,62.16
2023-02-18T15:27:29.884Z,62.72
2023-02-18T15:32:33.223Z,63.08
2023-02-18T15:37:36.013Z,63.37
2023-02-18T15:42:38.841Z,63.17
2023-02-18T15:47:48.273Z,63.84
2023-02-18T15:52:54.704Z,64.11
2023-02-18T15:58:02.683Z,64.52
2023-02-18T16:03:09.184Z,65.15
2023-02-18T16:08:29.490Z,65.34
2023-02-18T16:13:34.465Z,65.78
2023-02-18T16:18:41.957Z,66.03
2023-02-18T16:23:58.152Z,66.44
2023-02-18T16:29:21.645Z,67.10
2023-02-18T16:34:24.552Z,67.32
2023-02-18T16:39:30.912Z,67.65
2023-02-18T16:44:34.124Z,68.21
2023-02-18T16:49:37.582Z,68.53
2023-02-18T16:54:40.494Z,69.19
2023-02-18T16:59:43.280Z,70.52
2023-02-18T17:04:46.329Z,70.93
2023-02-18T17:09:49.338Z,71.64
2023-02-18T17:14:52.793Z,72.95
2023-02-18T17:19:55.704Z,73.66
2023-02-18T17:24:58.473Z,74.00
2023-02-18T17:30:02.100Z,74.38
2023-02-18T17:35:05.191Z,74.59
2023-02-18T17:40:13.698Z,75.09
2023-02-18T17:45:32.288Z,75.23
2023-02-18T17:50:35.211Z,75.57
2023-02-18T17:55:38.747Z,75.78
2023-02-18T18:00:45.743Z,75.97
2023-02-18T18:05:52.174Z,76.32
2023-02-18T18:10:59.081Z,76.58
2023-02-18T18:16:01.977Z,76.58
2023-02-18T18:21:05.598Z,76.82
2023-02-18T18:26:09.733Z,76.71
2023-02-18T18:31:16.069Z,76.58
2023-02-18T18:36:20.199Z,76.55
2023-02-18T18:41:23.006Z,76.96
2023-02-18T18:46:25.987Z,77.09
2023-02-18T18:51:32.913Z,76.97
2023-02-18T18:56:37.889Z,77.00
2023-02-18T19:01:40.947Z,77.28
2023-02-18T19:06:44.291Z,77.21
2023-02-18T19:11:47.244Z,77.15
2023-02-18T19:16:51.133Z,77.16
2023-02-18T19:21:55.006Z,77.54
2023-02-18T19:26:57.796Z,77.99
2023-02-18T19:32:00.627Z,78.41
2023-02-18T19:37:03.502Z,78.57
2023-02-18T19:42:06.461Z,78.81
2023-02-18T19:47:09.276Z,79.35
2023-02-18T19:52:13.244Z,79.66
2023-02-18T19:57:17.956Z,79.96
2023-02-18T20:02:23.954Z,80.42
2023-02-18T20:07:28.028Z,81.16
2023-02-18T20:12:31.127Z,81.52
2023-02-18T20:17:34.471Z,81.54
2023-02-18T20:22:37.292Z,82.62
2023-02-18T20:27:54.512Z,82.83
2023-02-18T20:33:03.335Z,83.10
2023-02-18T20:38:06.194Z,83.45
2023-02-18T20:43:08.995Z,83.20
2023-02-18T20:48:11.885Z,83.66
2023-02-18T20:53:15.404Z,83.60
2023-02-18T20:58:18.233Z,84.17
2023-02-18T21:03:21.005Z,84.03
2023-02-18T21:08:24.196Z,84.22
2023-02-18T21:13:27.084Z,84.11
2023-02-18T21:18:30.241Z,83.98
2023-02-18T21:23:33.322Z,83.79
2023-02-18T21:28:36.506Z,83.61
2023-02-18T21:33:39.306Z,83.86
2023-02-18T21:38:45.563Z,84.48
2023-02-18T21:43:48.850Z,84.57
2023-02-18T21:49:07.448Z,85.32
2023-02-18T21:54:10.348Z,85.58
2023-02-18T21:59:13.170Z,85.72
2023-02-18T22:04:16.086Z,85.45
2023-02-18T22:09:19.202Z,85.70
2023-02-18T22:14:22.063Z,85.51
2023-02-18T22:19:24.940Z,85.67
2023-02-18T22:24:27.735Z,85.89
2023-02-18T22:29:31.968Z,86.10
2023-02-18T22:34:34.776Z,86.56
2023-02-18T22:39:37.745Z,86.77
2023-02-18T22:44:40.646Z,87.22
2023-02-18T22:49:43.408Z,86.84
2023-02-18T22:54:46.156Z,87.17
2023-02-18T22:59:49.145Z,87.25
2023-02-18T23:04:52.584Z,87.45
2023-02-18T23:09:55.528Z,87.96
2023-02-18T23:14:58.296Z,88.32
2023-02-18T23:20:01.075Z,88.48
2023-02-18T23:25:05.304Z,88.45
2023-02-18T23:30:08.783Z,88.55
2023-02-18T23:35:11.591Z,88.67
2023-02-18T23:40:14.890Z,88.82
2023-02-18T23:45:18.147Z,88.84
2023-02-18T23:50:20.978Z,88.66
2023-02-18T23:55:23.682Z,88.61
